Time;durP1;ratioP1;P1;durP2;ratioP2;P2;SDS_P1;SDS_P2;PMS_P1;PMS_P2;Temp;Humidity;BMP_temperature;BMP_pressure;BME280_temperature;BME280_humidity;BME280_pressure;Samples;Min_cycle;Max_cycle;Signal;HPM_P1;HPM_P2
2021/01/06 00:01:57;;;;;;;23.70;15.73;;;4.70;99.90;;;;;;5148303;27;20429;-31
2021/01/06 00:04:23;;;;;;;20.67;15.07;;;4.70;99.90;;;;;;5147674;27;20425;-30
2021/01/06 00:06:50;;;;;;;17.90;13.60;;;4.60;99.90;;;;;;5146967;27;20498;-29
2021/01/06 00:09:17;;;;;;;23.50;15.40;;;4.60;99.90;;;;;;5147840;27;20593;-27
2021/01/06 00:11:43;;;;;;;21.20;14.97;;;4.50;99.90;;;;;;5148153;27;20433;-28
2021/01/06 00:14:13;;;;;;;16.97;13.80;;;4.40;99.90;;;;;;5147694;27;20464;-28
2021/01/06 00:16:40;;;;;;;17.73;13.40;;;4.50;99.90;;;;;;5147157;27;20858;-28
2021/01/06 00:19:08;;;;;;;20.17;13.97;;;4.50;99.90;;;;;;5147530;27;20429;-27
2021/01/06 00:21:37;;;;;;;21.90;16.10;;;4.50;99.90;;;;;;5148003;27;20425;-29
2021/01/06 00:24:05;;;;;;;21.20;14.43;;;4.50;99.90;;;;;;5147706;27;20558;-29
2021/01/06 00:26:33;;;;;;;19.20;14.13;;;4.50;99.90;;;;;;5147804;27;20433;-28
2021/01/06 00:28:59;;;;;;;18.20;13.23;;;4.40;99.90;;;;;;5147655;27;21081;-28
2021/01/06 00:31:26;;;;;;;17.83;13.93;;;4.40;99.90;;;;;;5151121;27;20437;-30
2021/01/06 00:33:52;;;;;;;14.90;13.27;;;4.50;99.90;;;;;;5152232;27;20528;-31
2021/01/06 00:36:21;;;;;;;17.57;14.43;;;4.50;99.90;;;;;;5151346;27;20478;-28
2021/01/06 00:38:49;;;;;;;18.20;13.57;;;4.40;99.90;;;;;;5150006;27;20642;-27
2021/01/06 00:41:24;;;;;;;16.10;13.67;;;4.40;99.90;;;;;;5152176;27;20717;-30
2021/01/06 00:43:52;;;;;;;16.30;12.57;;;4.40;99.90;;;;;;5152103;27;20440;-28
2021/01/06 00:46:19;;;;;;;16.00;13.27;;;4.40;99.90;;;;;;5151802;27;20471;-29
2021/01/06 00:48:45;;;;;;;21.83;13.70;;;4.40;99.90;;;;;;5132107;27;20457;-29
2021/01/06 00:51:12;;;;;;;18.50;13.77;;;4.50;99.90;;;;;;5151882;27;20493;-27
2021/01/06 00:53:39;;;;;;;15.03;13.40;;;4.50;99.90;;;;;;5132762;27;20463;-27
2021/01/06 00:56:06;;;;;;;17.93;13.73;;;4.50;99.90;;;;;;5152145;27;20433;-29
2021/01/06 00:58:36;;;;;;;18.33;13.20;;;4.40;99.90;;;;;;5132592;27;20729;-28
2021/01/06 01:01:06;;;;;;;15.87;13.10;;;4.50;99.90;;;;;;5134151;27;20439;-30
2021/01/06 01:03:40;;;;;;;21.70;14.50;;;4.40;99.90;;;;;;5150079;27;20433;-28
2021/01/06 01:06:07;;;;;;;15.97;13.03;;;4.40;99.90;;;;;;5132180;27;20425;-30
2021/01/06 01:08:33;;;;;;;17.33;12.57;;;4.50;99.90;;;;;;5151185;27;20901;-29
2021/01/06 01:11:01;;;;;;;18.30;13.60;;;4.50;99.90;;;;;;5152023;27;20709;-29
2021/01/06 01:13:27;;;;;;;21.10;13.23;;;4.40;99.90;;;;;;5151093;27;20863;-29
2021/01/06 01:15:56;;;;;;;16.77;13.00;;;4.50;99.90;;;;;;5150586;27;20679;-29
2021/01/06 01:18:25;;;;;;;19.57;13.47;;;4.40;99.90;;;;;;5150217;27;20738;-29
2021/01/06 01:20:54;;;;;;;20.00;13.10;;;4.40;99.90;;;;;;5150509;27;20429;-29
2021/01/06 01:23:24;;;;;;;19.80;12.37;;;4.40;99.90;;;;;;5150906;27;20465;-30
2021/01/06 01:25:52;;;;;;;22.83;14.90;;;4.40;99.90;;;;;;5150963;27;20536;-29
2021/01/06 01:28:22;;;;;;;20.20;14.13;;;4.40;99.90;;;;;;5151573;27;20471;-28
2021/01/06 01:30:49;;;;;;;21.30;14.40;;;4.50;99.90;;;;;;5150787;27;20930;-29
2021/01/06 01:33:15;;;;;;;23.83;15.73;;;4.40;99.90;;;;;;5151678;27;20842;-28
2021/01/06 01:35:42;;;;;;;30.73;15.43;;;4.50;99.90;;;;;;5149349;27;20429;-28
2021/01/06 01:38:16;;;;;;;22.40;14.50;;;4.50;99.90;;;;;;5148966;27;20456;-27
2021/01/06 01:40:42;;;;;;;27.07;16.20;;;4.50;99.90;;;;;;5150092;27;20517;-30
2021/01/06 01:43:17;;;;;;;32.43;16.27;;;4.50;99.90;;;;;;5149121;27;20830;-28
2021/01/06 01:46:32;;;;;;;24.10;16.53;;;4.60;99.90;;;;;;5149267;27;20458;-29
2021/01/06 01:49:02;;;;;;;21.87;15.23;;;4.60;99.90;;;;;;5150460;27;20459;-27
2021/01/06 01:51:36;;;;;;;23.00;15.03;;;4.60;99.90;;;;;;5150159;27;20800;-28
2021/01/06 01:54:05;;;;;;;28.50;15.37;;;4.60;99.90;;;;;;5147412;27;20452;-28
2021/01/06 01:56:39;;;;;;;23.67;14.53;;;4.60;99.90;;;;;;5149062;27;20730;-30
2021/01/06 01:59:09;;;;;;;24.40;14.50;;;4.60;99.90;;;;;;5148712;27;20517;-28
2021/01/06 02:01:37;;;;;;;20.70;15.93;;;4.60;99.90;;;;;;5150042;27;20472;-28
2021/01/06 02:04:10;;;;;;;20.63;14.00;;;4.60;99.90;;;;;;5148812;27;20784;-27
2021/01/06 02:06:42;;;;;;;24.37;15.13;;;4.60;99.90;;;;;;5150286;27;20524;-30
2021/01/06 02:09:14;;;;;;;21.20;14.80;;;4.60;99.90;;;;;;5149236;27;20685;-29
2021/01/06 02:11:44;;;;;;;23.30;15.13;;;4.60;99.90;;;;;;5149947;27;20478;-28
2021/01/06 02:14:14;;;;;;;26.17;15.40;;;4.70;99.90;;;;;;5150648;27;20504;-29
2021/01/06 02:16:49;;;;;;;23.30;15.27;;;4.70;99.90;;;;;;5150088;27;20452;-29
2021/01/06 02:19:19;;;;;;;23.93;14.50;;;4.70;99.90;;;;;;5149633;27;20436;-27
2021/01/06 02:21:47;;;;;;;24.30;16.30;;;4.70;99.90;;;;;;5148804;27;20529;-27
2021/01/06 02:24:14;;;;;;;21.73;14.87;;;4.70;99.90;;;;;;5147476;27;20838;-30
2021/01/06 02:26:40;;;;;;;19.87;13.97;;;4.70;99.90;;;;;;5148279;27;20854;-28
2021/01/06 02:29:07;;;;;;;25.10;15.20;;;4.70;99.90;;;;;;5147744;27;20492;-29
2021/01/06 02:31:34;;;;;;;20.37;15.00;;;4.60;99.90;;;;;;5148086;27;20544;-28
2021/01/06 02:34:01;;;;;;;22.50;14.73;;;4.60;99.90;;;;;;5149374;27;20838;-29
2021/01/06 02:36:29;;;;;;;22.93;14.87;;;4.50;99.90;;;;;;5149200;27;20513;-29
2021/01/06 02:38:57;;;;;;;22.63;15.27;;;4.50;99.90;;;;;;5148595;27;20857;-28
2021/01/06 02:41:25;;;;;;;21.53;15.20;;;4.60;99.90;;;;;;5148164;27;20865;-29
2021/01/06 02:43:52;;;;;;;19.97;14.17;;;4.60;99.90;;;;;;5148762;27;20460;-29
2021/01/06 02:46:18;;;;;;;23.90;14.00;;;4.60;99.90;;;;;;5149528;27;20522;-27
2021/01/06 02:48:46;;;;;;;23.90;15.43;;;4.60;99.90;;;;;;5149711;27;20556;-30
2021/01/06 02:51:16;;;;;;;16.73;13.70;;;4.60;99.90;;;;;;5149564;27;20437;-27
2021/01/06 02:53:46;;;;;;;22.30;15.13;;;4.60;99.90;;;;;;5148580;27;20484;-30
2021/01/06 02:56:16;;;;;;;19.70;13.13;;;4.70;99.90;;;;;;5148737;27;20545;-29
2021/01/06 02:58:42;;;;;;;20.33;13.40;;;4.70;99.90;;;;;;5150640;27;20847;-29
2021/01/06 03:01:11;;;;;;;24.70;15.07;;;4.60;99.90;;;;;;5150605;27;20441;-29
2021/01/06 03:03:40;;;;;;;19.30;13.90;;;4.60;99.90;;;;;;5149742;27;21048;-28
2021/01/06 03:06:11;;;;;;;22.50;14.77;;;4.50;99.90;;;;;;5150246;27;20614;-29
2021/01/06 03:08:41;;;;;;;20.80;14.47;;;4.50;99.90;;;;;;5148916;27;20739;-28
2021/01/06 03:11:09;;;;;;;20.20;13.80;;;4.50;99.90;;;;;;5148480;27;20440;-29
2021/01/06 03:13:36;;;;;;;21.43;15.63;;;4.50;99.90;;;;;;5149939;27;20437;-27
2021/01/06 03:16:04;;;;;;;22.13;14.43;;;4.40;99.90;;;;;;5149932;27;20472;-30
2021/01/06 03:18:31;;;;;;;21.23;15.80;;;4.30;99.90;;;;;;5150411;27;20846;-30
2021/01/06 03:21:05;;;;;;;22.00;14.00;;;4.30;99.90;;;;;;5149697;27;20673;-28
2021/01/06 03:23:35;;;;;;;24.57;15.40;;;4.40;99.90;;;;;;5148777;27;20739;-28
2021/01/06 03:26:10;;;;;;;18.00;13.40;;;4.30;99.90;;;;;;5147667;27;20501;-29
2021/01/06 03:28:39;;;;;;;26.47;13.67;;;4.20;99.90;;;;;;5149456;27;20468;-30
2021/01/06 03:31:11;;;;;;;20.50;14.80;;;4.20;99.90;;;;;;5149324;27;20441;-30
2021/01/06 03:33:43;;;;;;;21.90;14.13;;;4.10;99.90;;;;;;5149195;27;20787;-29
2021/01/06 03:36:14;;;;;;;23.70;14.87;;;4.10;99.90;;;;;;5148166;27;20749;-28
2021/01/06 03:38:45;;;;;;;22.00;16.40;;;4.10;99.90;;;;;;5147805;27;21061;-29
2021/01/06 03:41:13;;;;;;;21.17;13.47;;;4.10;99.90;;;;;;5148391;27;20484;-28
2021/01/06 03:43:45;;;;;;;27.13;15.00;;;4.10;99.90;;;;;;5149193;27;20441;-27
2021/01/06 03:46:19;;;;;;;19.97;14.37;;;4.20;99.90;;;;;;5147995;27;20437;-27
2021/01/06 03:48:57;;;;;;;21.57;15.60;;;4.20;99.90;;;;;;5148951;27;20480;-29
2021/01/06 03:51:29;;;;;;;23.03;16.27;;;4.30;99.90;;;;;;5146984;27;20461;-29
2021/01/06 03:54:03;;;;;;;23.90;13.13;;;4.40;99.90;;;;;;5147625;27;20465;-30
2021/01/06 03:56:37;;;;;;;23.27;16.27;;;4.40;99.90;;;;;;5146203;27;21031;-28
2021/01/06 03:59:11;;;;;;;24.07;15.33;;;4.40;99.90;;;;;;5147005;27;20449;-28
2021/01/06 04:01:56;;;;;;;21.50;14.70;;;4.40;99.90;;;;;;5145843;27;20810;-30
2021/01/06 04:04:28;;;;;;;25.87;15.73;;;4.40;99.90;;;;;;5145565;27;20708;-27
2021/01/06 04:06:57;;;;;;;27.10;16.10;;;4.40;99.90;;;;;;5145882;27;20486;-29
2021/01/06 04:09:32;;;;;;;24.90;14.33;;;4.50;99.90;;;;;;5147036;27;20473;-27
2021/01/06 04:12:06;;;;;;;25.47;14.40;;;4.50;99.90;;;;;;5146783;27;20781;-28
2021/01/06 04:14:33;;;;;;;31.93;17.43;;;4.50;99.90;;;;;;5145319;27;20641;-27
2021/01/06 04:17:17;;;;;;;22.97;15.40;;;4.50;99.90;;;;;;5143540;27;20445;-27
2021/01/06 04:19:46;;;;;;;33.23;16.20;;;4.50;99.90;;;;;;5144472;27;20775;-30
2021/01/06 04:22:15;;;;;;;23.00;15.10;;;4.50;99.90;;;;;;5144706;27;20436;-27
2021/01/06 04:24:42;;;;;;;23.90;15.47;;;4.40;99.90;;;;;;5144113;27;20476;-28
2021/01/06 04:27:16;;;;;;;26.97;16.70;;;4.40;99.90;;;;;;5125240;27;20717;-28
2021/01/06 04:29:44;;;;;;;28.90;17.80;;;4.30;99.90;;;;;;5128399;27;20756;-28
2021/01/06 04:32:11;;;;;;;28.30;16.00;;;4.20;99.90;;;;;;5147194;27;20564;-29
2021/01/06 04:34:38;;;;;;;30.37;16.43;;;4.10;99.90;;;;;;5145317;27;20445;-30
2021/01/06 04:37:04;;;;;;;29.50;18.13;;;4.00;99.90;;;;;;5145591;27;20538;-29
2021/01/06 04:39:31;;;;;;;24.17;14.70;;;3.90;99.90;;;;;;5145392;27;20531;-29
2021/01/06 04:42:01;;;;;;;30.30;15.07;;;3.70;99.90;;;;;;5145371;27;20433;-28
2021/01/06 04:44:48;;;;;;;27.20;18.17;;;3.70;99.90;;;;;;5144026;27;20441;-30
2021/01/06 04:47:36;;;;;;;30.53;17.47;;;3.60;99.90;;;;;;5143885;27;20969;-28
2021/01/06 04:50:44;;;;;;;24.50;15.70;;;3.60;99.90;;;;;;5143081;27;20571;-28
2021/01/06 04:53:18;;;;;;;24.47;15.60;;;3.50;99.90;;;;;;5100484;27;20831;-29
2021/01/06 04:56:05;;;;;;;22.30;15.10;;;3.40;99.90;;;;;;5143573;27;20437;-28
2021/01/06 04:58:41;;;;;;;22.90;16.40;;;3.40;99.90;;;;;;5145371;27;20727;-27
2021/01/06 05:01:39;;;;;;;23.67;16.30;;;3.40;99.90;;;;;;5143863;27;20455;-29
2021/01/06 05:04:50;;;;;;;25.13;15.10;;;3.50;99.90;;;;;;5144146;27;20429;-28
2021/01/06 05:07:28;;;;;;;24.80;15.30;;;3.60;99.90;;;;;;5133172;27;20540;-28
2021/01/06 05:10:01;;;;;;;22.83;14.87;;;3.50;99.90;;;;;;5143427;27;20529;-27
2021/01/06 05:12:34;;;;;;;30.17;16.20;;;3.50;99.90;;;;;;5143464;27;20780;-27
2021/01/06 05:15:23;;;;;;;21.73;15.33;;;3.50;99.90;;;;;;5143103;27;20817;-27
2021/01/06 05:17:51;;;;;;;32.20;15.53;;;3.60;99.90;;;;;;5145039;27;20433;-28
2021/01/06 05:20:17;;;;;;;23.27;15.50;;;3.60;99.90;;;;;;5147440;27;20695;-30
2021/01/06 05:22:44;;;;;;;27.40;15.50;;;3.60;99.90;;;;;;5146280;27;20478;-30
2021/01/06 05:25:13;;;;;;;28.53;14.80;;;3.60;99.90;;;;;;5146030;27;20476;-28
2021/01/06 05:27:41;;;;;;;28.20;15.03;;;3.60;99.90;;;;;;5145956;27;20433;-29
2021/01/06 05:30:20;;;;;;;24.60;15.27;;;3.50;99.90;;;;;;5147147;27;20778;-28
2021/01/06 05:32:47;;;;;;;29.07;15.70;;;3.50;99.90;;;;;;5144656;27;20433;-29
2021/01/06 05:35:18;;;;;;;24.33;14.90;;;3.50;99.90;;;;;;5144071;27;20822;-32
2021/01/06 05:37:48;;;;;;;27.67;17.00;;;3.60;99.90;;;;;;5143218;27;20935;-29
2021/01/06 05:40:15;;;;;;;22.33;15.20;;;3.60;99.90;;;;;;5143125;27;20567;-28
2021/01/06 05:42:49;;;;;;;19.07;15.27;;;3.60;99.90;;;;;;5141380;27;20583;-28
2021/01/06 05:45:18;;;;;;;22.57;14.43;;;3.60;99.90;;;;;;5141436;27;20468;-28
2021/01/06 05:47:50;;;;;;;25.50;17.80;;;3.60;99.90;;;;;;5142799;27;20841;-27
2021/01/06 05:50:23;;;;;;;25.40;15.60;;;3.60;99.90;;;;;;5140832;27;20472;-30
2021/01/06 05:53:01;;;;;;;22.23;13.53;;;3.60;99.90;;;;;;5143042;27;21162;-27
2021/01/06 05:55:31;;;;;;;26.67;15.87;;;3.70;99.90;;;;;;5138504;27;20581;-28
2021/01/06 05:58:06;;;;;;;33.77;16.10;;;3.70;99.90;;;;;;5141492;27;20445;-29
2021/01/06 06:00:51;;;;;;;26.80;15.13;;;3.70;99.90;;;;;;5137079;27;20806;-30
2021/01/06 06:03:41;;;;;;;25.53;16.93;;;3.70;99.90;;;;;;5140275;27;20643;-29
2021/01/06 06:06:55;;;;;;;22.10;14.90;;;3.70;99.90;;;;;;5119437;27;20445;-28
2021/01/06 06:09:48;;;;;;;26.50;14.60;;;3.70;99.90;;;;;;5135165;27;20486;-28
2021/01/06 06:12:35;;;;;;;21.83;15.20;;;3.70;99.90;;;;;;5136072;27;20460;-28
2021/01/06 06:15:22;;;;;;;23.40;14.10;;;3.80;99.90;;;;;;5136707;27;20536;-27
2021/01/06 06:18:20;;;;;;;22.03;14.47;;;3.90;99.90;;;;;;5134853;27;20441;-29
2021/01/06 06:21:01;;;;;;;20.67;15.13;;;3.80;99.90;;;;;;5131170;27;20433;-28
2021/01/06 06:24:00;;;;;;;17.43;13.57;;;3.70;99.90;;;;;;5133037;27;20922;-27
2021/01/06 06:26:34;;;;;;;22.03;16.33;;;3.50;99.90;;;;;;5131750;27;20433;-30
2021/01/06 06:29:14;;;;;;;29.73;16.03;;;3.50;99.90;;;;;;5128488;27;20826;-28
2021/01/06 06:31:46;;;;;;;26.70;15.50;;;3.60;99.90;;;;;;5130578;27;20437;-28
2021/01/06 06:34:14;;;;;;;24.80;15.33;;;3.60;99.90;;;;;;5129578;27;20591;-28
2021/01/06 06:36:46;;;;;;;26.17;14.40;;;3.70;99.90;;;;;;5128925;27;20918;-28
2021/01/06 06:39:28;;;;;;;20.83;14.77;;;3.60;99.90;;;;;;5108860;27;20785;-30
2021/01/06 06:42:01;;;;;;;31.63;15.23;;;3.70;99.90;;;;;;5128731;27;20437;-28
2021/01/06 06:44:31;;;;;;;24.43;14.40;;;3.70;99.90;;;;;;5125666;27;20460;-29
2021/01/06 06:47:22;;;;;;;24.00;14.47;;;3.70;99.90;;;;;;5126732;27;20498;-29
2021/01/06 06:50:34;;;;;;;25.60;15.70;;;3.70;99.90;;;;;;5102561;27;20672;-30
2021/01/06 06:53:15;;;;;;;21.77;14.10;;;3.70;99.90;;;;;;5124294;27;20872;-28
2021/01/06 06:55:49;;;;;;;21.90;14.73;;;3.80;99.90;;;;;;5126877;27;20671;-30
2021/01/06 06:58:35;;;;;;;23.43;15.03;;;3.70;99.90;;;;;;5120199;27;20444;-27
2021/01/06 07:01:07;;;;;;;21.33;13.20;;;3.80;99.90;;;;;;5125860;27;20465;-30
2021/01/06 07:03:35;;;;;;;21.40;14.70;;;3.80;99.90;;;;;;5122030;27;20706;-28
2021/01/06 07:06:03;;;;;;;24.30;14.97;;;3.80;99.90;;;;;;5119900;27;20433;-31
2021/01/06 07:08:36;;;;;;;21.27;14.57;;;3.80;99.90;;;;;;5118104;27;20926;-30
2021/01/06 07:11:09;;;;;;;19.63;13.00;;;3.70;99.90;;;;;;5115100;27;20438;-29
2021/01/06 07:13:37;;;;;;;19.43;13.67;;;3.60;99.90;;;;;;5118876;27;20429;-30
2021/01/06 07:16:13;;;;;;;20.70;14.10;;;3.50;99.90;;;;;;5119477;27;20516;-29
2021/01/06 07:18:42;;;;;;;18.77;12.30;;;3.50;99.90;;;;;;5121840;27;20648;-30
2021/01/06 07:21:23;;;;;;;18.93;12.67;;;3.50;99.90;;;;;;5115416;27;20429;-28
2021/01/06 07:23:54;;;;;;;22.60;14.23;;;3.50;99.90;;;;;;5115375;27;20737;-29
2021/01/06 07:26:24;;;;;;;22.23;16.00;;;3.50;99.90;;;;;;5118138;27;20437;-30
2021/01/06 07:28:59;;;;;;;17.80;13.40;;;3.50;99.90;;;;;;5110827;27;20569;-27
2021/01/06 07:31:29;;;;;;;19.20;14.30;;;3.60;99.90;;;;;;5114537;27;20464;-28
2021/01/06 07:33:58;;;;;;;19.67;14.17;;;3.60;99.90;;;;;;5097751;27;20532;-30
2021/01/06 07:36:27;;;;;;;16.27;13.80;;;3.70;99.90;;;;;;5114486;27;20935;-29
2021/01/06 07:38:58;;;;;;;17.27;13.47;;;3.70;99.90;;;;;;5110455;27;20969;-29
2021/01/06 07:41:29;;;;;;;17.93;13.40;;;3.80;99.90;;;;;;5109906;27;20524;-28
2021/01/06 07:44:04;;;;;;;16.23;12.93;;;3.70;99.90;;;;;;5113322;27;20615;-29
2021/01/06 07:46:45;;;;;;;17.60;14.03;;;3.70;99.90;;;;;;5115247;27;20909;-30
2021/01/06 07:49:27;;;;;;;18.80;14.97;;;3.60;99.90;;;;;;5114156;27;20476;-28
2021/01/06 07:51:58;;;;;;;16.50;12.20;;;3.70;99.90;;;;;;5109280;27;20433;-30
2021/01/06 07:54:33;;;;;;;17.43;13.57;;;3.70;99.90;;;;;;5113903;27;20511;-29
2021/01/06 07:57:11;;;;;;;14.87;13.17;;;3.80;99.90;;;;;;5110809;27;20839;-27
2021/01/06 07:59:46;;;;;;;17.90;12.93;;;3.80;99.90;;;;;;5095559;27;20949;-30
2021/01/06 08:02:17;;;;;;;15.87;12.17;;;3.80;99.90;;;;;;5112247;27;21111;-27
2021/01/06 08:05:15;;;;;;;18.10;13.03;;;3.90;99.90;;;;;;5113077;27;20535;-29
2021/01/06 08:07:42;;;;;;;14.03;11.97;;;3.90;99.90;;;;;;5113715;27;21090;-30
2021/01/06 08:10:23;;;;;;;16.10;12.53;;;4.00;99.90;;;;;;5116577;27;20728;-28
2021/01/06 08:12:51;;;;;;;13.10;11.60;;;4.00;99.90;;;;;;5109028;27;21091;-29
2021/01/06 08:15:23;;;;;;;16.43;13.53;;;4.00;99.90;;;;;;5108544;27;20839;-27
2021/01/06 08:17:55;;;;;;;14.23;11.50;;;4.00;99.90;;;;;;5110908;27;21328;-28
2021/01/06 08:20:26;;;;;;;18.77;13.63;;;4.10;99.90;;;;;;5109489;27;21166;-27
2021/01/06 08:23:01;;;;;;;17.50;12.80;;;4.20;99.90;;;;;;5108381;27;20841;-28
2021/01/06 08:25:31;;;;;;;17.63;13.33;;;4.20;99.90;;;;;;5108794;27;20574;-28
2021/01/06 08:27:59;;;;;;;17.80;13.57;;;4.20;99.90;;;;;;5112953;27;20685;-27
2021/01/06 08:30:28;;;;;;;14.03;11.90;;;4.10;99.90;;;;;;5113555;27;20668;-28
2021/01/06 08:33:08;;;;;;;15.63;13.07;;;4.10;99.90;;;;;;5105296;27;20462;-28
2021/01/06 08:35:37;;;;;;;15.43;12.77;;;4.10;99.90;;;;;;5105666;27;20890;-30
2021/01/06 08:38:24;;;;;;;13.83;12.00;;;4.20;99.90;;;;;;5109680;27;20745;-30
2021/01/06 08:40:50;;;;;;;16.13;12.30;;;4.10;99.90;;;;;;5113723;27;20879;-27
2021/01/06 08:43:18;;;;;;;18.10;13.83;;;4.00;99.90;;;;;;5111830;27;20788;-29
2021/01/06 08:45:54;;;;;;;16.00;13.30;;;4.10;99.90;;;;;;5110337;27;20808;-29
2021/01/06 08:48:25;;;;;;;18.47;14.10;;;4.10;99.90;;;;;;5109816;27;20548;-28
2021/01/06 08:50:54;;;;;;;18.43;12.90;;;4.20;99.90;;;;;;5109264;27;20890;-28
2021/01/06 08:53:31;;;;;;;16.17;12.80;;;4.20;99.90;;;;;;5110028;27;21314;-29
2021/01/06 08:55:59;;;;;;;14.90;12.23;;;4.20;99.90;;;;;;5114870;27;20489;-29
2021/01/06 08:58:40;;;;;;;16.23;12.80;;;4.30;99.90;;;;;;5109083;27;20744;-29
2021/01/06 09:01:28;;;;;;;16.33;12.93;;;4.20;99.90;;;;;;5111762;27;20748;-28
2021/01/06 09:04:02;;;;;;;15.50;12.37;;;4.20;99.90;;;;;;5112555;27;20681;-28
2021/01/06 09:06:30;;;;;;;17.40;12.40;;;4.20;99.90;;;;;;5111084;27;20947;-28
2021/01/06 09:09:23;;;;;;;15.17;12.87;;;4.10;99.90;;;;;;5115871;27;20503;-29
2021/01/06 09:11:54;;;;;;;17.27;13.33;;;4.00;99.90;;;;;;5110896;27;20947;-27
2021/01/06 09:14:31;;;;;;;17.20;13.93;;;4.10;99.90;;;;;;5114232;27;20758;-28
2021/01/06 09:17:05;;;;;;;17.93;13.17;;;4.20;99.90;;;;;;5112078;27;20479;-29
2021/01/06 09:19:40;;;;;;;17.97;13.57;;;4.20;99.90;;;;;;5108252;27;20870;-28
2021/01/06 09:22:09;;;;;;;19.17;13.50;;;4.20;99.90;;;;;;5110395;27;20475;-28
2021/01/06 09:24:39;;;;;;;15.03;12.30;;;4.30;99.90;;;;;;5110052;27;21016;-30
2021/01/06 09:27:18;;;;;;;20.60;13.47;;;4.30;99.90;;;;;;5107914;27;20777;-29
2021/01/06 09:29:45;;;;;;;21.43;14.60;;;4.20;99.90;;;;;;5110905;27;20616;-27
2021/01/06 09:32:16;;;;;;;16.83;13.57;;;4.20;99.90;;;;;;5109679;27;20558;-29
2021/01/06 09:34:45;;;;;;;21.63;15.73;;;4.20;99.90;;;;;;5106197;27;20997;-29
2021/01/06 09:37:19;;;;;;;19.07;13.23;;;4.30;99.90;;;;;;5088158;27;20480;-27
2021/01/06 09:39:47;;;;;;;20.13;15.53;;;4.20;99.90;;;;;;5085412;27;20812;-28
2021/01/06 09:42:15;;;;;;;18.30;15.23;;;4.30;99.90;;;;;;5109331;27;20447;-28
2021/01/06 09:44:42;;;;;;;18.87;14.13;;;4.30;99.90;;;;;;5111088;27;20436;-29
2021/01/06 09:47:23;;;;;;;18.53;13.57;;;4.30;99.90;;;;;;5108328;27;20522;-31
2021/01/06 09:49:56;;;;;;;17.50;13.93;;;4.30;99.90;;;;;;5112426;27;20571;-30
2021/01/06 09:52:28;;;;;;;17.63;13.50;;;4.30;99.90;;;;;;5111547;27;20908;-29
2021/01/06 09:54:56;;;;;;;16.97;14.17;;;4.20;99.90;;;;;;5111514;27;20468;-28
2021/01/06 09:57:24;;;;;;;18.47;15.90;;;4.20;99.90;;;;;;5109646;27;20663;-28
2021/01/06 09:59:58;;;;;;;26.67;20.33;;;4.10;99.90;;;;;;5106409;27;21009;-28
2021/01/06 10:02:27;;;;;;;17.50;14.70;;;4.10;99.90;;;;;;5107148;27;20884;-28
2021/01/06 10:04:57;;;;;;;25.00;14.37;;;4.00;99.90;;;;;;5111972;27;20548;-31
2021/01/06 10:07:40;;;;;;;18.40;14.67;;;4.10;99.90;;;;;;5105466;27;20660;-27
2021/01/06 10:10:13;;;;;;;16.67;13.47;;;4.10;99.90;;;;;;5107727;27;20512;-29
2021/01/06 10:12:53;;;;;;;20.17;14.50;;;4.10;99.90;;;;;;5114708;27;20448;-32
2021/01/06 10:15:38;;;;;;;15.40;13.13;;;4.20;99.90;;;;;;5109442;27;20741;-29
2021/01/06 10:18:21;;;;;;;20.00;14.13;;;4.20;99.90;;;;;;5113893;27;20990;-28
2021/01/06 10:20:53;;;;;;;18.73;14.50;;;4.10;99.90;;;;;;5117562;27;20442;-27
2021/01/06 10:23:32;;;;;;;17.23;13.50;;;4.20;99.90;;;;;;5113307;27;20772;-28
2021/01/06 10:26:11;;;;;;;19.90;15.37;;;4.20;99.90;;;;;;5111248;27;20506;-28
2021/01/06 10:28:44;;;;;;;17.70;15.10;;;4.20;99.90;;;;;;5108957;27;20757;-31
2021/01/06 10:31:15;;;;;;;23.07;15.40;;;4.30;99.90;;;;;;5105638;27;20618;-28
2021/01/06 10:34:04;;;;;;;20.17;14.70;;;4.30;99.90;;;;;;5090130;27;20792;-28
2021/01/06 10:37:08;;;;;;;19.53;14.87;;;4.40;99.90;;;;;;5109917;27;20490;-25
2021/01/06 10:39:39;;;;;;;19.70;14.80;;;4.40;99.90;;;;;;5091914;27;20973;-27
2021/01/06 10:42:27;;;;;;;16.97;15.13;;;4.30;99.90;;;;;;5114499;27;20468;-27
2021/01/06 10:44:56;;;;;;;21.13;17.27;;;4.20;99.90;;;;;;5109919;27;20448;-29
2021/01/06 10:47:39;;;;;;;20.53;15.57;;;4.10;99.90;;;;;;5106483;27;20996;-28
2021/01/06 10:50:41;;;;;;;22.13;16.57;;;4.10;99.90;;;;;;5110184;27;20473;-30
2021/01/06 10:53:15;;;;;;;20.13;15.77;;;4.10;99.90;;;;;;5108189;27;20547;-28
2021/01/06 10:55:45;;;;;;;17.80;14.97;;;4.10;99.90;;;;;;5108235;27;20909;-28
2021/01/06 10:58:24;;;;;;;19.17;14.73;;;4.10;99.90;;;;;;5110281;27;20429;-28
2021/01/06 11:01:04;;;;;;;21.33;15.37;;;4.20;99.90;;;;;;5105649;27;20441;-29
2021/01/06 11:03:48;;;;;;;17.37;14.83;;;4.30;99.90;;;;;;5107215;27;20456;-29
2021/01/06 11:06:25;;;;;;;16.70;13.93;;;4.30;99.90;;;;;;5106397;27;20759;-29
2021/01/06 11:09:32;;;;;;;19.67;16.67;;;4.30;99.90;;;;;;5112909;27;20740;-29
2021/01/06 11:12:30;;;;;;;20.73;14.67;;;4.40;99.90;;;;;;5089781;27;20449;-28
2021/01/06 11:15:17;;;;;;;19.27;13.90;;;4.50;99.90;;;;;;5072381;27;20699;-28
2021/01/06 11:18:00;;;;;;;17.10;14.10;;;4.60;99.90;;;;;;5105682;27;20509;-29
2021/01/06 11:20:33;;;;;;;20.30;15.53;;;4.60;99.90;;;;;;5105439;27;20779;-26
2021/01/06 11:23:36;;;;;;;18.53;15.67;;;4.70;99.90;;;;;;5108880;27;20536;-26
2021/01/06 11:26:50;;;;;;;15.70;14.00;;;4.70;99.90;;;;;;5094360;27;20660;-28
2021/01/06 11:29:43;;;;;;;16.97;14.93;;;4.70;99.90;;;;;;5103069;27;20952;-26
2021/01/06 11:32:34;;;;;;;21.00;16.60;;;4.60;99.90;;;;;;5079632;27;20829;-28
2021/01/06 11:35:24;;;;;;;18.00;14.10;;;4.50;99.90;;;;;;5087404;27;20702;-28
2021/01/06 11:37:52;;;;;;;18.33;15.57;;;4.50;99.90;;;;;;5108237;27;20433;-26
2021/01/06 11:40:52;;;;;;;20.30;16.23;;;4.50;99.90;;;;;;5109528;27;20971;-25
2021/01/06 11:43:47;;;;;;;18.37;15.03;;;4.40;99.90;;;;;;5109773;27;21126;-26
2021/01/06 11:46:39;;;;;;;19.30;15.23;;;4.40;99.90;;;;;;5090393;27;20756;-27
2021/01/06 11:49:29;;;;;;;21.97;15.93;;;4.40;99.90;;;;;;5110693;27;21252;-27
2021/01/06 11:52:26;;;;;;;18.83;14.30;;;4.30;99.90;;;;;;5105254;27;20499;-27
2021/01/06 11:54:57;;;;;;;21.60;16.33;;;4.30;99.90;;;;;;5088372;27;21074;-28
2021/01/06 11:57:46;;;;;;;16.50;13.17;;;4.30;99.90;;;;;;5111182;27;20573;-26
2021/01/06 12:00:32;;;;;;;16.73;14.90;;;4.40;99.90;;;;;;5109665;27;21223;-28
2021/01/06 12:03:18;;;;;;;22.30;14.83;;;4.40;99.90;;;;;;5115079;27;20480;-30
2021/01/06 12:06:03;;;;;;;16.40;13.73;;;4.40;99.90;;;;;;5112834;27;20843;-29
2021/01/06 12:08:47;;;;;;;17.77;15.00;;;4.30;99.90;;;;;;5111041;27;20460;-28
2021/01/06 12:11:25;;;;;;;18.57;14.77;;;4.20;99.90;;;;;;5110999;27;20761;-31
2021/01/06 12:14:05;;;;;;;19.57;14.63;;;4.20;99.90;;;;;;5112976;27;20635;-28
2021/01/06 12:16:41;;;;;;;17.93;13.97;;;4.20;99.90;;;;;;5116241;27;20542;-26
2021/01/06 12:19:19;;;;;;;18.30;13.33;;;4.10;99.90;;;;;;5111511;27;20635;-27
2021/01/06 12:22:09;;;;;;;20.77;14.30;;;4.10;99.90;;;;;;5111030;27;20821;-26
2021/01/06 12:25:04;;;;;;;17.73;14.47;;;4.20;99.90;;;;;;5106207;27;20448;-27
2021/01/06 12:27:44;;;;;;;15.97;12.97;;;4.30;99.90;;;;;;5116140;27;20942;-27
2021/01/06 12:30:39;;;;;;;16.20;14.00;;;4.30;99.90;;;;;;5115309;27;20495;-28
2021/01/06 12:33:26;;;;;;;21.17;14.43;;;4.20;99.90;;;;;;5118836;27;20660;-28
2021/01/06 12:36:10;;;;;;;19.80;13.57;;;4.10;99.90;;;;;;5118829;27;20994;-29
2021/01/06 12:38:38;;;;;;;23.27;15.47;;;4.10;99.90;;;;;;5110554;27;20476;-29
2021/01/06 12:41:09;;;;;;;16.67;12.80;;;4.00;99.90;;;;;;5114479;27;20773;-27
2021/01/06 12:43:40;;;;;;;22.00;15.80;;;4.00;99.90;;;;;;5114940;27;20688;-27
2021/01/06 12:46:20;;;;;;;18.30;13.33;;;4.00;99.90;;;;;;5116168;27;20992;-27
2021/01/06 12:49:14;;;;;;;19.10;13.80;;;3.90;99.90;;;;;;5115165;27;20790;-27
2021/01/06 12:51:43;;;;;;;20.37;14.93;;;3.90;99.90;;;;;;5113855;27;20861;-27
2021/01/06 12:54:18;;;;;;;19.70;14.63;;;3.90;99.90;;;;;;5113555;27;20568;-26
2021/01/06 12:56:49;;;;;;;15.33;13.23;;;3.90;99.90;;;;;;5111933;27;20640;-30
2021/01/06 12:59:18;;;;;;;14.73;11.50;;;3.90;99.90;;;;;;5116909;27;20437;-29
2021/01/06 13:01:51;;;;;;;13.93;12.53;;;3.90;99.90;;;;;;5124552;27;20702;-28
2021/01/06 13:04:27;;;;;;;22.80;19.40;;;3.90;99.90;;;;;;5121035;27;20498;-26
2021/01/06 13:06:57;;;;;;;19.23;16.30;;;4.00;99.90;;;;;;5116004;27;20428;-28
2021/01/06 13:09:33;;;;;;;13.30;11.93;;;4.00;99.90;;;;;;5114274;27;20516;-27
2021/01/06 13:12:07;;;;;;;13.50;11.23;;;4.10;99.90;;;;;;5116243;27;20436;-28
2021/01/06 13:14:44;;;;;;;13.70;12.20;;;4.00;99.90;;;;;;5115006;27;20997;-29
2021/01/06 13:17:28;;;;;;;11.97;10.70;;;3.90;99.90;;;;;;5098577;27;20453;-29